Time;durP1;ratioP1;P1;durP2;ratioP2;P2;SDS_P1;SDS_P2;PMS_P1;PMS_P2;Temp;Humidity;BMP_temperature;BMP_pressure;BME280_temperature;BME280_humidity;BME280_pressure;Samples;Min_cycle;Max_cycle;Signal;HPM_P1;HPM_P2
2021/03/25 00:01:41;;;;;;;8.20;7.75;;;25.10;99.90;;;;;;5094703;28;19908;-64
2021/03/25 00:04:09;;;;;;;8.02;7.72;;;25.00;99.90;;;;;;5095297;28;20016;-64
2021/03/25 00:06:48;;;;;;;8.27;7.70;;;24.90;99.90;;;;;;5094731;28;20039;-64
2021/03/25 00:09:26;;;;;;;7.90;7.60;;;25.00;99.90;;;;;;5094721;28;20012;-64
2021/03/25 00:11:53;;;;;;;7.88;7.55;;;25.20;99.90;;;;;;5094811;28;20104;-64
2021/03/25 00:14:21;;;;;;;9.20;8.80;;;25.40;99.90;;;;;;5094552;28;20016;-63
2021/03/25 00:16:49;;;;;;;8.70;8.20;;;25.70;99.90;;;;;;5094532;28;20020;-64
2021/03/25 00:19:18;;;;;;;8.40;8.10;;;25.70;99.90;;;;;;5094359;28;20024;-64
2021/03/25 00:21:45;;;;;;;8.48;8.07;;;25.80;99.90;;;;;;5094895;28;20027;-63
2021/03/25 00:24:15;;;;;;;8.23;7.80;;;25.80;99.90;;;;;;5094411;28;20020;-63
2021/03/25 00:26:46;;;;;;;8.32;8.00;;;25.70;99.90;;;;;;5094370;28;20020;-63
2021/03/25 00:29:15;;;;;;;8.80;8.40;;;25.80;99.70;;;;;;5094815;28;20020;-63
2021/03/25 00:31:44;;;;;;;8.38;8.07;;;25.80;99.90;;;;;;5094304;28;20032;-64
2021/03/25 00:34:13;;;;;;;8.38;7.93;;;25.60;99.70;;;;;;5094247;28;20055;-63
2021/03/25 00:36:40;;;;;;;8.15;7.85;;;25.80;99.90;;;;;;5094144;28;20062;-64
2021/03/25 00:39:10;;;;;;;8.30;7.90;;;25.80;99.80;;;;;;5092699;28;20126;-64
2021/03/25 00:41:37;;;;;;;7.53;7.05;;;25.90;99.60;;;;;;5094515;28;20024;-63
2021/03/25 00:44:09;;;;;;;7.53;7.22;;;25.80;99.20;;;;;;5094039;28;20357;-64
2021/03/25 00:46:37;;;;;;;7.82;7.38;;;25.70;99.80;;;;;;5094065;28;20012;-64
2021/03/25 00:49:05;;;;;;;8.20;7.80;;;26.00;98.40;;;;;;5093934;28;20031;-64
2021/03/25 00:51:33;;;;;;;8.10;7.60;;;25.60;99.70;;;;;;5092541;28;20031;-64
2021/03/25 00:54:01;;;;;;;8.00;7.60;;;26.00;99.30;;;;;;5093757;28;20488;-64
2021/03/25 00:56:28;;;;;;;7.95;7.60;;;26.30;98.60;;;;;;5093757;28;20029;-67
2021/03/25 00:58:56;;;;;;;8.05;7.45;;;26.50;98.90;;;;;;5094138;28;20416;-64
2021/03/25 01:01:25;;;;;;;8.55;7.82;;;26.50;98.60;;;;;;5093681;28;20024;-65
2021/03/25 01:03:52;;;;;;;8.27;7.97;;;26.50;98.80;;;;;;5093733;28;20073;-64
2021/03/25 01:06:19;;;;;;;7.97;7.50;;;26.10;98.20;;;;;;5093638;28;20020;-64
2021/03/25 01:08:46;;;;;;;8.23;7.72;;;26.30;98.60;;;;;;5094220;28;20020;-64
2021/03/25 01:11:18;;;;;;;8.45;8.10;;;26.50;99.10;;;;;;5093578;28;20070;-64
2021/03/25 01:13:59;;;;;;;8.25;7.85;;;26.50;98.70;;;;;;5093587;28;20441;-64
2021/03/25 01:16:33;;;;;;;8.90;8.50;;;26.30;98.10;;;;;;5093552;28;20028;-65
2021/03/25 01:19:02;;;;;;;8.60;7.80;;;26.70;98.40;;;;;;5093472;28;20024;-64
2021/03/25 01:21:29;;;;;;;8.20;7.90;;;26.80;97.80;;;;;;5092029;28;20020;-65
2021/03/25 01:23:57;;;;;;;8.60;8.02;;;26.80;98.40;;;;;;5093405;28;20042;-64
2021/03/25 01:26:24;;;;;;;8.40;8.00;;;26.90;98.20;;;;;;5093414;28;20044;-65
2021/03/25 01:28:52;;;;;;;7.85;7.55;;;27.00;99.00;;;;;;5093395;28;20023;-65
2021/03/25 01:31:21;;;;;;;8.43;7.82;;;27.30;98.20;;;;;;5093188;28;20366;-65
2021/03/25 01:33:48;;;;;;;8.43;8.02;;;27.50;97.20;;;;;;5093434;28;20525;-64
2021/03/25 01:36:16;;;;;;;8.30;8.00;;;27.40;98.00;;;;;;5093294;28;20381;-65
2021/03/25 01:38:43;;;;;;;8.10;7.70;;;27.30;97.30;;;;;;5093131;28;20073;-65
2021/03/25 01:41:11;;;;;;;8.05;7.65;;;27.30;97.80;;;;;;5092782;28;20031;-65
2021/03/25 01:43:41;;;;;;;7.57;7.18;;;27.40;97.10;;;;;;5093208;28;20023;-65
2021/03/25 01:46:17;;;;;;;7.35;7.00;;;27.40;97.40;;;;;;5093156;28;20158;-66
2021/03/25 01:48:49;;;;;;;7.90;7.60;;;27.40;97.00;;;;;;5093108;28;20024;-65
2021/03/25 01:51:37;;;;;;;7.97;7.60;;;27.70;96.80;;;;;;5093045;28;20024;-65
2021/03/25 01:54:04;;;;;;;7.93;7.53;;;28.00;96.80;;;;;;5093318;28;20081;-65
2021/03/25 01:56:45;;;;;;;7.10;6.70;;;27.70;96.50;;;;;;5093491;28;20099;-65
2021/03/25 01:59:39;;;;;;;8.35;7.95;;;28.00;97.20;;;;;;5091595;28;20615;-65
2021/03/25 02:02:11;;;;;;;8.00;7.50;;;27.70;96.50;;;;;;5091494;28;20085;-65
2021/03/25 02:04:53;;;;;;;7.90;7.50;;;27.10;96.70;;;;;;5091586;28;20504;-65
2021/03/25 02:07:56;;;;;;;7.30;6.90;;;27.20;96.90;;;;;;5092974;28;20012;-65
2021/03/25 02:11:00;;;;;;;7.50;7.10;;;27.70;97.20;;;;;;5091540;28;20059;-66
2021/03/25 02:13:32;;;;;;;8.20;7.85;;;28.40;97.20;;;;;;5075566;28;20039;-65
2021/03/25 02:16:13;;;;;;;8.02;7.60;;;28.30;96.10;;;;;;5092950;28;20059;-66
2021/03/25 02:19:02;;;;;;;6.57;6.18;;;27.80;96.10;;;;;;5092899;28;20028;-67
2021/03/25 02:22:05;;;;;;;6.60;6.30;;;27.50;96.40;;;;;;5093160;28;20024;-65
2021/03/25 02:24:38;;;;;;;6.95;6.53;;;27.90;97.10;;;;;;5092744;28;20028;-65
2021/03/25 02:27:39;;;;;;;8.18;7.85;;;28.70;97.10;;;;;;5093246;28;20047;-66
2021/03/25 02:30:30;;;;;;;8.60;8.10;;;29.00;96.50;;;;;;5092630;28;20027;-65
2021/03/25 02:33:01;;;;;;;8.10;7.78;;;28.60;96.10;;;;;;5093202;28;20024;-65
2021/03/25 02:35:33;;;;;;;;;;;28.40;95.70;;;;;;5091711;28;20076;-65
2021/03/25 02:38:09;;;;;;;8.00;7.70;;;28.30;95.20;;;;;;5092653;28;19911;-65
2021/03/25 02:40:52;;;;;;;7.32;7.00;;;28.20;95.90;;;;;;5092653;28;20480;-66
2021/03/25 02:43:41;;;;;;;7.32;7.03;;;28.30;96.00;;;;;;5092639;28;20471;-65
2021/03/25 02:46:38;;;;;;;7.80;7.50;;;28.60;96.00;;;;;;5093138;28;20475;-66
2021/03/25 02:49:12;;;;;;;7.90;7.50;;;28.40;95.20;;;;;;5070497;28;20024;-65
2021/03/25 02:52:09;;;;;;;7.60;7.30;;;28.70;95.90;;;;;;5092610;28;20484;-67
2021/03/25 02:54:37;;;;;;;7.47;7.13;;;29.00;95.20;;;;;;5085535;28;20039;-65
2021/03/25 02:57:13;;;;;;;7.32;7.03;;;29.00;95.50;;;;;;5095904;28;20028;-65
2021/03/25 02:59:43;;;;;;;7.50;7.20;;;29.60;95.80;;;;;;5096154;28;20437;-65
2021/03/25 03:02:23;;;;;;;7.60;7.22;;;29.80;96.20;;;;;;5096098;28;20465;-66
2021/03/25 03:04:51;;;;;;;;;;;29.30;95.40;;;;;;5096461;28;20024;-65
2021/03/25 03:07:37;;;;;;;7.53;7.25;;;29.00;95.80;;;;;;5096248;28;20379;-65
2021/03/25 03:10:11;;;;;;;7.70;7.30;;;28.80;94.30;;;;;;5095866;28;20051;-65
2021/03/25 03:12:45;;;;;;;7.20;6.95;;;28.80;95.00;;;;;;5096351;28;20114;-65
2021/03/25 03:15:15;;;;;;;7.47;7.00;;;28.70;95.20;;;;;;5095648;28;20449;-66
2021/03/25 03:18:02;;;;;;;8.07;7.65;;;28.30;96.40;;;;;;5096196;28;20020;-64
2021/03/25 03:20:42;;;;;;;8.32;7.85;;;27.80;97.60;;;;;;5095937;28;20035;-65
2021/03/25 03:23:10;;;;;;;8.20;7.80;;;27.30;98.20;;;;;;5094343;28;20035;-65
2021/03/25 03:25:39;;;;;;;8.50;7.93;;;27.00;98.80;;;;;;5095567;28;20160;-65
2021/03/25 03:28:41;;;;;;;8.55;8.10;;;27.00;99.00;;;;;;5095561;28;20016;-64
2021/03/25 03:31:20;;;;;;;8.30;7.80;;;26.90;99.80;;;;;;5095374;28;20054;-64
2021/03/25 03:33:53;;;;;;;8.10;7.70;;;26.50;99.40;;;;;;5095667;28;20027;-65
2021/03/25 03:36:24;;;;;;;8.10;7.70;;;26.30;99.90;;;;;;5095424;28;20236;-64
2021/03/25 03:39:18;;;;;;;7.72;7.32;;;26.20;99.90;;;;;;5095117;28;20040;-64
2021/03/25 03:42:02;;;;;;;7.90;7.40;;;26.00;99.70;;;;;;5094548;28;20540;-65
2021/03/25 03:44:39;;;;;;;10.70;9.75;;;25.90;99.90;;;;;;5095230;28;20016;-66
2021/03/25 03:47:09;;;;;;;8.50;7.95;;;25.80;99.90;;;;;;5095177;28;20057;-65
2021/03/25 03:49:45;;;;;;;8.13;7.63;;;25.60;99.90;;;;;;5095060;28;20031;-65
2021/03/25 03:52:21;;;;;;;7.43;7.13;;;25.20;99.90;;;;;;5095583;28;20032;-65
2021/03/25 03:54:54;;;;;;;7.82;7.43;;;25.00;99.90;;;;;;5094935;28;20028;-66
2021/03/25 03:57:21;;;;;;;8.00;7.50;;;24.80;99.90;;;;;;5093563;28;20539;-65
2021/03/25 04:00:06;;;;;;;7.70;7.20;;;24.60;99.90;;;;;;5094801;28;20032;-65
2021/03/25 04:02:40;;;;;;;7.90;7.43;;;24.60;99.90;;;;;;5094828;28;20024;-67
2021/03/25 04:05:20;;;;;;;8.00;7.45;;;24.50;99.90;;;;;;5094764;28;20024;-66
2021/03/25 04:08:02;;;;;;;8.23;7.75;;;24.40;99.90;;;;;;5094652;28;20059;-69
2021/03/25 04:10:45;;;;;;;9.43;8.93;;;24.20;99.90;;;;;;5094659;28;20024;-65
2021/03/25 04:13:26;;;;;;;8.75;8.25;;;23.90;99.90;;;;;;5094870;28;20116;-65
2021/03/25 04:15:55;;;;;;;8.90;8.50;;;23.70;99.90;;;;;;5094553;28;20017;-65
2021/03/25 04:18:28;;;;;;;9.57;8.98;;;23.70;99.90;;;;;;5094993;28;20079;-65
2021/03/25 04:21:02;;;;;;;10.25;9.48;;;23.70;99.90;;;;;;5094231;28;20366;-65
2021/03/25 04:23:30;;;;;;;11.68;10.73;;;23.40;99.90;;;;;;5094372;28;20024;-64
2021/03/25 04:26:16;;;;;;;12.95;12.10;;;23.10;99.90;;;;;;5094334;28;20061;-64
2021/03/25 04:28:48;;;;;;;16.20;14.68;;;22.80;99.90;;;;;;5093007;28;20020;-64
2021/03/25 04:31:16;;;;;;;20.65;19.30;;;22.70;99.90;;;;;;5093999;28;20020;-64
2021/03/25 04:33:43;;;;;;;30.85;29.05;;;22.40;99.90;;;;;;5094201;28;20399;-64
2021/03/25 04:36:19;;;;;;;53.20;50.47;;;22.10;99.90;;;;;;5094144;28;20024;-69
2021/03/25 04:38:48;;;;;;;60.53;57.15;;;21.90;99.90;;;;;;5094300;28;20107;-64
2021/03/25 04:41:17;;;;;;;65.07;61.88;;;21.90;99.90;;;;;;5093946;28;20027;-64
2021/03/25 04:43:47;;;;;;;73.85;69.18;;;21.90;99.90;;;;;;5093962;28;20027;-63
2021/03/25 04:47:00;;;;;;;74.10;69.93;;;21.90;99.90;;;;;;5094679;28;20452;-64
2021/03/25 04:49:46;;;;;;;78.80;74.13;;;21.80;99.90;;;;;;5049352;28;20043;-64
2021/03/25 04:52:23;;;;;;;81.10;76.40;;;22.00;99.90;;;;;;5093918;28;20028;-63
2021/03/25 04:54:52;;;;;;;75.85;71.55;;;22.10;99.90;;;;;;5094406;28;20089;-64
2021/03/25 04:57:29;;;;;;;71.05;66.95;;;22.40;99.90;;;;;;5093739;28;20099;-64
2021/03/25 04:59:58;;;;;;;76.43;71.88;;;22.80;99.90;;;;;;5093733;28;20028;-65
2021/03/25 05:02:25;;;;;;;77.10;72.78;;;23.10;99.90;;;;;;5092345;28;20016;-64
2021/03/25 05:04:56;;;;;;;77.95;73.65;;;23.20;99.90;;;;;;5093468;28;20081;-64
2021/03/25 05:07:32;;;;;;;79.57;75.05;;;23.50;99.90;;;;;;5093684;28;20021;-65
2021/03/25 05:10:01;;;;;;;78.85;74.15;;;23.80;99.90;;;;;;5093870;28;20028;-65
2021/03/25 05:12:29;;;;;;;74.65;70.60;;;23.60;99.90;;;;;;5093790;28;20021;-65
2021/03/25 05:15:12;;;;;;;72.50;68.70;;;23.30;99.90;;;;;;5092740;28;20024;-69
2021/03/25 05:18:04;;;;;;;72.35;68.18;;;23.20;99.90;;;;;;5093502;28;20027;-66
2021/03/25 05:21:09;;;;;;;73.10;69.00;;;23.00;99.90;;;;;;5093980;28;20024;-65
2021/03/25 05:24:03;;;;;;;73.60;69.28;;;23.10;99.90;;;;;;5011930;28;20487;-65
2021/03/25 05:26:40;;;;;;;76.30;71.70;;;23.00;99.90;;;;;;5092287;28;20089;-62
2021/03/25 05:29:10;;;;;;;78.80;74.50;;;23.00;99.90;;;;;;5093612;28;20020;-63
2021/03/25 05:31:39;;;;;;;78.40;73.97;;;23.10;99.90;;;;;;5093284;28;20020;-63
2021/03/25 05:34:08;;;;;;;70.50;66.53;;;23.30;99.90;;;;;;5093858;28;20046;-62
2021/03/25 05:36:37;;;;;;;71.03;66.47;;;23.40;99.90;;;;;;5093035;28;20480;-62
2021/03/25 05:39:05;;;;;;;67.95;63.85;;;23.60;99.90;;;;;;5093047;28;20161;-71
2021/03/25 05:41:42;;;;;;;66.80;62.90;;;23.80;99.90;;;;;;5093039;28;20059;-64
2021/03/25 05:44:37;;;;;;;72.47;68.45;;;24.00;99.90;;;;;;5093684;28;20425;-65
2021/03/25 05:47:27;;;;;;;66.90;63.30;;;24.00;99.90;;;;;;5093042;28;20095;-65
2021/03/25 05:50:07;;;;;;;64.63;60.97;;;24.20;99.90;;;;;;5091734;28;20027;-65
2021/03/25 05:53:00;;;;;;;62.10;58.80;;;24.20;99.90;;;;;;5093443;28;20103;-64
2021/03/25 05:55:46;;;;;;;60.00;57.10;;;24.10;99.90;;;;;;5055634;28;20024;-69
2021/03/25 05:58:39;;;;;;;60.85;57.85;;;24.20;99.90;;;;;;5093020;28;20487;-67
2021/03/25 06:01:24;;;;;;;58.53;55.58;;;24.10;99.90;;;;;;5092409;28;20032;-67
2021/03/25 06:04:00;;;;;;;60.72;57.53;;;24.00;99.90;;;;;;5092881;28;20024;-67
2021/03/25 06:07:10;;;;;;;56.10;53.40;;;24.20;99.90;;;;;;5093479;28;20016;-67
2021/03/25 06:09:59;;;;;;;53.00;50.50;;;24.20;99.90;;;;;;5057037;28;20035;-67
2021/03/25 06:12:45;;;;;;;54.85;52.35;;;24.30;99.90;;;;;;5093346;28;20054;-68
2021/03/25 06:15:31;;;;;;;51.60;49.10;;;24.00;99.90;;;;;;5092814;28;20380;-67
2021/03/25 06:18:15;;;;;;;53.42;50.65;;;23.80;99.90;;;;;;5093351;28;20073;-67
2021/03/25 06:21:08;;;;;;;51.78;49.08;;;23.30;99.90;;;;;;5093144;28;20055;-67
2021/03/25 06:23:54;;;;;;;56.00;53.13;;;23.30;99.90;;;;;;5093285;28;20052;-67
2021/03/25 06:26:33;;;;;;;55.88;52.95;;;23.20;99.90;;;;;;5092450;28;20028;-68
2021/03/25 06:29:24;;;;;;;58.13;55.22;;;23.30;99.90;;;;;;5096476;28;20023;-67
2021/03/25 06:31:58;;;;;;;61.03;57.72;;;23.30;99.90;;;;;;5096664;28;20020;-67
2021/03/25 06:34:41;;;;;;;65.18;61.78;;;23.30;99.90;;;;;;5097155;28;20032;-67
2021/03/25 06:37:33;;;;;;;67.57;64.07;;;23.20;99.90;;;;;;5097078;28;20048;-67
2021/03/25 06:40:03;;;;;;;65.53;62.13;;;23.30;99.90;;;;;;5096135;28;20381;-67
2021/03/25 06:43:08;;;;;;;70.55;66.75;;;23.20;99.90;;;;;;5096432;28;20024;-67
2021/03/25 06:46:01;;;;;;;71.88;68.00;;;23.20;99.90;;;;;;5094630;28;20032;-67
2021/03/25 06:48:42;;;;;;;71.22;67.18;;;23.10;99.90;;;;;;5096820;28;20139;-66
2021/03/25 06:51:23;;;;;;;74.10;70.10;;;23.10;99.90;;;;;;5096281;28;20104;-66
2021/03/25 06:54:20;;;;;;;74.80;70.80;;;23.20;99.90;;;;;;5094886;28;20028;-66
2021/03/25 06:56:50;;;;;;;69.75;65.88;;;23.30;99.90;;;;;;5089947;28;20111;-66
2021/03/25 06:59:36;;;;;;;66.40;62.58;;;23.20;99.90;;;;;;5096152;28;20110;-66
2021/03/25 07:02:09;;;;;;;65.13;61.33;;;23.20;99.90;;;;;;5096535;28;20024;-66
2021/03/25 07:04:46;;;;;;;62.85;59.35;;;23.20;99.90;;;;;;5095925;28;20020;-66
2021/03/25 07:07:35;;;;;;;61.53;58.22;;;23.10;99.90;;;;;;5095912;28;20030;-66
2021/03/25 07:10:05;;;;;;;63.80;60.13;;;23.00;99.90;;;;;;5095866;28;20024;-66
2021/03/25 07:12:37;;;;;;;62.50;59.00;;;22.90;99.90;;;;;;5096351;28;20260;-66
2021/03/25 07:15:07;;;;;;;65.93;62.03;;;23.00;99.90;;;;;;5095725;28;20358;-65
2021/03/25 07:17:42;;;;;;;62.35;58.75;;;22.90;99.90;;;;;;5096464;28;20024;-65
2021/03/25 07:20:25;;;;;;;62.10;58.70;;;22.80;99.90;;;;;;5095726;28;20066;-65
2021/03/25 07:23:03;;;;;;;61.65;58.25;;;22.60;99.90;;;;;;5096021;28;20052;-66
2021/03/25 07:25:34;;;;;;;60.28;56.88;;;22.50;99.90;;;;;;5095649;28;20020;-65
2021/03/25 07:28:01;;;;;;;;;;;22.40;99.90;;;;;;5096239;28;20028;-65
2021/03/25 07:30:52;;;;;;;58.97;55.42;;;22.30;99.90;;;;;;5095465;28;19904;-65
2021/03/25 07:33:28;;;;;;;62.05;58.25;;;22.20;99.90;;;;;;5094358;28;20485;-65
2021/03/25 07:35:57;;;;;;;61.50;57.80;;;22.00;99.90;;;;;;5095940;28;20110;-66
2021/03/25 07:38:39;;;;;;;59.78;55.88;;;21.90;99.90;;;;;;5094644;28;20042;-65
2021/03/25 07:41:26;;;;;;;61.17;57.47;;;21.90;99.90;;;;;;5095793;28;20035;-65
2021/03/25 07:43:59;;;;;;;63.92;60.33;;;21.80;99.90;;;;;;5095576;28;20434;-65
2021/03/25 07:46:29;;;;;;;63.50;59.70;;;21.60;99.90;;;;;;5095113;28;20469;-65
2021/03/25 07:49:11;;;;;;;66.90;63.08;;;21.50;99.90;;;;;;5095259;28;20016;-65
2021/03/25 07:51:49;;;;;;;68.50;64.07;;;21.50;99.90;;;;;;5095755;28;20020;-65
2021/03/25 07:54:39;;;;;;;71.95;67.75;;;21.40;99.90;;;;;;5095004;28;20028;-65
2021/03/25 07:57:17;;;;;;;69.38;65.38;;;21.40;99.90;;;;;;5094957;28;20027;-65
2021/03/25 07:59:48;;;;;;;71.45;66.95;;;21.30;99.90;;;;;;5093568;28;20032;-65
2021/03/25 08:02:34;;;;;;;72.97;68.80;;;21.20;99.90;;;;;;5095374;28;20104;-65
2021/03/25 08:05:19;;;;;;;76.00;71.38;;;21.10;99.90;;;;;;5094933;28;20024;-65
2021/03/25 08:07:49;;;;;;;78.95;74.25;;;21.00;99.90;;;;;;5095071;28;20016;-65
2021/03/25 08:10:23;;;;;;;72.95;68.57;;;20.90;99.90;;;;;;5094917;28;20020;-65
2021/03/25 08:12:50;;;;;;;71.20;66.90;;;20.90;99.90;;;;;;5095368;28;20020;-65
2021/03/25 08:15:26;;;;;;;59.28;56.08;;;21.00;99.90;;;;;;5094794;28;20422;-65
2021/03/25 08:18:22;;;;;;;49.08;46.47;;;21.00;99.90;;;;;;5093401;28;20380;-65
2021/03/25 08:20:58;;;;;;;43.10;40.95;;;21.00;99.90;;;;;;5095115;28;20020;-65
2021/03/25 08:24:06;;;;;;;24.25;23.10;;;20.90;99.90;;;;;;5095179;28;20020;-66
2021/03/25 08:26:54;;;;;;;19.88;18.98;;;21.30;99.90;;;;;;5063567;28;20056;-65
2021/03/25 08:29:44;;;;;;;20.08;19.20;;;21.40;99.90;;;;;;5094705;28;20089;-65
2021/03/25 08:32:40;;;;;;;17.83;17.03;;;21.30;99.90;;;;;;5094625;28;20142;-65
2021/03/25 08:35:16;;;;;;;16.58;15.80;;;21.30;99.90;;;;;;5058664;28;20089;-64
2021/03/25 08:37:50;;;;;;;15.45;14.75;;;21.30;99.90;;;;;;5093127;28;20028;-67
2021/03/25 08:40:21;;;;;;;14.90;14.20;;;21.40;99.90;;;;;;5094071;28;20097;-64
2021/03/25 08:43:00;;;;;;;14.57;13.98;;;21.30;99.90;;;;;;5094544;28;20020;-65
2021/03/25 08:46:01;;;;;;;14.85;14.25;;;21.20;99.90;;;;;;5094303;28;20401;-65
2021/03/25 08:48:43;;;;;;;15.50;14.77;;;21.10;99.90;;;;;;5094428;28;20023;-65
2021/03/25 08:51:44;;;;;;;17.90;17.05;;;21.00;99.90;;;;;;5093518;28;20350;-64
2021/03/25 08:54:18;;;;;;;17.73;16.95;;;21.00;99.90;;;;;;5050331;28;20136;-64
2021/03/25 08:56:52;;;;;;;16.40;15.60;;;21.00;99.90;;;;;;5094485;28;20362;-64
2021/03/25 08:59:26;;;;;;;13.63;13.05;;;21.00;99.90;;;;;;5094010;28;20024;-66
2021/03/25 09:02:13;;;;;;;12.73;12.13;;;20.90;99.90;;;;;;5093902;28;20024;-65
2021/03/25 09:04:52;;;;;;;12.43;11.88;;;20.90;99.90;;;;;;5093717;28;20028;-66
2021/03/25 09:07:20;;;;;;;11.10;10.60;;;20.90;99.90;;;;;;5093688;28;20532;-63
2021/03/25 09:10:19;;;;;;;10.70;10.20;;;21.10;99.90;;;;;;5093582;28;20484;-63
2021/03/25 09:12:46;;;;;;;9.80;9.45;;;21.00;99.90;;;;;;5024184;28;20060;-65
2021/03/25 09:15:15;;;;;;;9.25;8.85;;;21.00;99.90;;;;;;5093466;28;20051;-65
2021/03/25 09:18:19;;;;;;;8.40;8.00;;;21.10;99.90;;;;;;5091987;28;20039;-65
2021/03/25 09:20:49;;;;;;;7.70;7.40;;;21.30;99.90;;;;;;5089495;28;20060;-65
2021/03/25 09:23:32;;;;;;;7.25;6.95;;;21.40;99.90;;;;;;5093394;28;20377;-65
2021/03/25 09:26:09;;;;;;;7.10;6.80;;;21.60;99.90;;;;;;5093211;28;20492;-64
2021/03/25 09:29:04;;;;;;;5.90;5.70;;;21.70;99.90;;;;;;5093809;28;20350;-64
2021/03/25 09:31:55;;;;;;;5.47;5.28;;;21.80;99.90;;;;;;5093792;28;20035;-65
2021/03/25 09:34:25;;;;;;;6.18;5.90;;;21.80;99.90;;;;;;5055739;28;20058;-65
2021/03/25 09:37:06;;;;;;;5.68;5.45;;;22.00;99.90;;;;;;5093205;28;20451;-65
2021/03/25 09:39:36;;;;;;;6.50;6.20;;;22.10;99.90;;;;;;5093290;28;20398;-65
2021/03/25 09:42:27;;;;;;;5.45;5.05;;;22.00;99.90;;;;;;5092964;28;20081;-65
2021/03/25 09:44:55;;;;;;;5.82;5.50;;;21.90;99.90;;;;;;5091781;28;20027;-66
2021/03/25 09:47:26;;;;;;;5.40;5.10;;;21.70;99.90;;;;;;5093126;28;20142;-65
2021/03/25 09:50:02;;;;;;;5.97;5.63;;;21.80;99.90;;;;;;5093711;28;20502;-65
2021/03/25 09:52:40;;;;;;;6.80;6.50;;;21.70;99.90;;;;;;5093035;28;20494;-65
2021/03/25 09:55:09;;;;;;;6.68;6.47;;;21.80;99.90;;;;;;5093330;28;20066;-65
2021/03/25 09:57:40;;;;;;;7.50;7.20;;;21.70;99.90;;;;;;5093065;28;20403;-65
2021/03/25 10:00:42;;;;;;;5.60;5.30;;;21.90;99.90;;;;;;5091666;28;20100;-66
2021/03/25 10:03:14;;;;;;;6.70;6.47;;;21.70;99.90;;;;;;5095637;28;20024;-65
2021/03/25 10:05:43;;;;;;;5.20;5.00;;;21.70;99.90;;;;;;5097235;28;20024;-66
2021/03/25 10:08:11;;;;;;;6.72;6.32;;;21.60;99.90;;;;;;5097182;28;20016;-65
2021/03/25 10:10:46;;;;;;;6.25;5.97;;;21.60;99.90;;;;;;5097537;28;20468;-66
2021/03/25 10:13:14;;;;;;;6.32;6.13;;;21.50;99.90;;;;;;5097556;28;20073;-64
2021/03/25 10:15:57;;;;;;;5.50;5.30;;;21.60;99.90;;;;;;5097075;28;20019;-63
2021/03/25 10:18:28;;;;;;;5.57;5.38;;;21.60;99.90;;;;;;5097111;28;20107;-64
2021/03/25 10:21:12;;;;;;;;;;;21.60;99.90;;;;;;5097930;28;20103;-64
2021/03/25 10:23:51;;;;;;;7.20;6.90;;;21.50;99.90;;;;;;5097356;28;20345;-64
2021/03/25 10:26:43;;;;;;;6.90;6.55;;;21.50;99.90;;;;;;5095500;28;20430;-64
2021/03/25 10:29:11;;;;;;;6.35;6.15;;;21.50;99.90;;;;;;5096727;28;20095;-64
2021/03/25 10:31:44;;;;;;;7.47;7.18;;;21.40;99.90;;;;;;5097122;28;20016;-64
2021/03/25 10:34:32;;;;;;;7.22;6.93;;;21.40;99.90;;;;;;5095398;28;20104;-64
2021/03/25 10:37:52;;;;;;;7.13;6.90;;;21.40;99.90;;;;;;5096717;28;20016;-65
2021/03/25 10:40:44;;;;;;;7.72;7.43;;;21.30;99.90;;;;;;4997692;28;20054;-64
2021/03/25 10:43:18;;;;;;;7.97;7.60;;;21.30;99.90;;;;;;5015003;28;20109;-64
2021/03/25 10:45:56;;;;;;;7.38;7.07;;;21.20;99.90;;;;;;5071777;28;20391;-64
2021/03/25 10:48:38;;;;;;;7.30;7.00;;;21.20;99.90;;;;;;5096388;28;20027;-67
2021/03/25 10:51:14;;;;;;;6.70;6.40;;;21.20;99.90;;;;;;5096572;28;20042;-65
2021/03/25 10:53:53;;;;;;;4.45;4.25;;;21.20;99.90;;;;;;5096537;28;20077;-64
2021/03/25 10:56:27;;;;;;;6.75;6.47;;;21.10;99.90;;;;;;5096185;28;20020;-65
2021/03/25 10:59:26;;;;;;;7.30;6.93;;;21.20;99.90;;;;;;5096183;28;20051;-63
2021/03/25 11:01:59;;;;;;;7.18;6.90;;;21.10;99.90;;;;;;5076146;28;20044;-66
2021/03/25 11:04:34;;;;;;;7.63;7.22;;;21.10;99.90;;;;;;5096648;28;20036;-64
2021/03/25 11:07:18;;;;;;;8.00;7.70;;;21.00;99.90;;;;;;5096566;28;20027;-64
2021/03/25 11:09:58;;;;;;;8.13;7.82;;;20.80;99.90;;;;;;5096069;28;20016;-65
2021/03/25 11:12:31;;;;;;;8.05;7.75;;;20.60;99.90;;;;;;5095208;28;20044;-65
2021/03/25 11:15:15;;;;;;;7.88;7.57;;;20.70;99.90;;;;;;5096095;28;20035;-65
2021/03/25 11:17:44;;;;;;;7.60;7.30;;;20.70;99.90;;;;;;5095824;28;20024;-65
2021/03/25 11:20:20;;;;;;;7.93;7.63;;;20.70;99.90;;;;;;5096182;28;20024;-65
2021/03/25 11:22:49;;;;;;;7.78;7.47;;;20.50;99.90;;;;;;5095744;28;20021;-65
2021/03/25 11:25:29;;;;;;;7.40;7.00;;;20.50;99.90;;;;;;5095661;28;20345;-65
2021/03/25 11:28:17;;;;;;;7.50;7.20;;;20.50;99.90;;;;;;5096251;28;20032;-65
2021/03/25 11:30:50;;;;;;;7.20;6.80;;;20.50;99.90;;;;;;5095443;28;20024;-65
2021/03/25 11:33:39;;;;;;;6.90;6.70;;;20.30;99.90;;;;;;5096005;28;20430;-65
2021/03/25 11:36:07;;;;;;;6.95;6.60;;;20.30;99.90;;;;;;5095901;28;20024;-65
2021/03/25 11:38:41;;;;;;;7.47;7.18;;;20.30;99.90;;;;;;5095181;28;20024;-65
2021/03/25 11:41:17;;;;;;;7.32;7.00;;;20.30;99.90;;;;;;5093949;28;20024;-65
2021/03/25 11:43:55;;;;;;;6.80;6.60;;;20.50;99.90;;;;;;5095633;28;20012;-65
2021/03/25 11:46:33;;;;;;;7.50;7.20;;;20.40;99.90;;;;;;5095412;28;20020;-65
2021/03/25 11:49:09;;;;;;;8.00;7.50;;;20.50;99.90;;;;;;5095184;28;20017;-65
2021/03/25 11:51:41;;;;;;;7.90;7.50;;;20.40;99.90;;;;;;5095271;28;20028;-65
2021/03/25 11:54:24;;;;;;;7.32;7.03;;;20.40;99.90;;;;;;5095711;28;20024;-65
2021/03/25 11:56:56;;;;;;;7.43;7.13;;;20.50;99.90;;;;;;5095079;28;20024;-65
2021/03/25 11:59:39;;;;;;;7.50;7.20;;;20.50;99.90;;;;;;5095573;28;20024;-65
2021/03/25 12:02:29;;;;;;;6.95;6.75;;;20.50;99.90;;;;;;5095024;28;20028;-65
2021/03/25 12:04:56;;;;;;;6.60;6.20;;;20.40;99.90;;;;;;5095047;28;20020;-65
2021/03/25 12:07:27;;;;;;;7.60;7.30;;;20.40;99.90;;;;;;5094838;28;20616;-65
2021/03/25 12:10:00;;;;;;;;;;;20.40;99.90;;;;;;5093811;28;20048;-65
2021/03/25 12:12:28;;;;;;;7.35;6.95;;;20.40;99.90;;;;;;5094771;28;19911;-65
2021/03/25 12:14:55;;;;;;;6.10;5.80;;;20.40;99.90;;;;;;5094719;28;20072;-65
2021/03/25 12:17:24;;;;;;;5.72;5.53;;;20.40;99.90;;;;;;5094714;28;20172;-65
2021/03/25 12:19:52;;;;;;;6.70;6.28;;;20.30;99.90;;;;;;5094682;28;20048;-65
2021/03/25 12:22:29;;;;;;;6.47;6.18;;;20.30;99.90;;;;;;5093170;28;20488;-65
2021/03/25 12:24:57;;;;;;;6.20;6.00;;;20.20;99.90;;;;;;5094308;28;20512;-65
2021/03/25 12:27:29;;;;;;;6.30;6.00;;;20.30;99.90;;;;;;5094935;28;20365;-65
2021/03/25 12:29:58;;;;;;;7.28;6.80;;;20.20;99.90;;;;;;5093032;28;20017;-64
2021/03/25 12:32:29;;;;;;;7.00;6.60;;;20.10;99.90;;;;;;5094428;28;20028;-64
2021/03/25 12:34:57;;;;;;;6.80;6.50;;;20.10;99.90;;;;;;5094364;28;20418;-64
2021/03/25 12:37:27;;;;;;;7.07;6.78;;;20.10;99.90;;;;;;5094185;28;20024;-64
2021/03/25 12:39:55;;;;;;;6.85;6.55;;;20.00;99.90;;;;;;5094254;28;20040;-64
2021/03/25 12:42:23;;;;;;;6.93;6.63;;;20.00;99.90;;;;;;5094621;28;20069;-65
2021/03/25 12:44:50;;;;;;;6.90;6.70;;;19.90;99.90;;;;;;5094144;28;20044;-65
2021/03/25 12:47:18;;;;;;;7.00;6.70;;;19.90;99.90;;;;;;5094102;28;20038;-67
2021/03/25 12:49:45;;;;;;;6.47;6.28;;;19.90;99.90;;;;;;5094186;28;20012;-65
2021/03/25 12:52:12;;;;;;;6.63;6.32;;;19.90;99.90;;;;;;5094236;28;20027;-64
2021/03/25 12:54:39;;;;;;;6.70;6.40;;;19.80;99.90;;;;;;5092523;28;20074;-64
2021/03/25 12:57:09;;;;;;;6.85;6.60;;;19.70;99.90;;;;;;5093946;28;20103;-64
2021/03/25 12:59:42;;;;;;;6.82;6.63;;;19.70;99.90;;;;;;5094397;28;20035;-64
2021/03/25 13:02:12;;;;;;;6.95;6.65;;;19.60;99.90;;;;;;5093824;28;20027;-64
2021/03/25 13:04:40;;;;;;;6.90;6.60;;;19.70;99.90;;;;;;5093822;28;20025;-64
2021/03/25 13:07:08;;;;;;;7.32;7.03;;;19.50;99.90;;;;;;5094329;28;20020;-64
2021/03/25 13:09:35;;;;;;;7.40;7.10;;;19.50;99.90;;;;;;5093726;28;20024;-65
2021/03/25 13:12:23;;;;;;;7.75;7.30;;;19.50;99.90;;;;;;5093822;28;20039;-64
2021/03/25 13:14:50;;;;;;;6.97;6.78;;;19.50;99.90;;;;;;5094161;28;20024;-64
2021/03/25 13:17:18;;;;;;;7.00;6.70;;;19.40;99.90;;;;;;5093606;28;20485;-66
2021/03/25 13:19:45;;;;;;;7.03;6.72;;;19.30;99.90;;;;;;5094041;28;20165;-64
2021/03/25 13:22:13;;;;;;;7.28;6.93;;;19.10;99.90;;;;;;5093654;28;20028;-64
2021/03/25 13:24:40;;;;;;;7.70;7.30;;;19.00;99.90;;;;;;5093401;28;20547;-64
2021/03/25 13:27:07;;;;;;;7.30;7.00;;;18.80;99.90;;;;;;5093460;28;20021;-64
2021/03/25 13:29:35;;;;;;;7.60;7.22;;;19.00;99.90;;;;;;5093303;28;20374;-64
2021/03/25 13:32:02;;;;;;;6.93;6.72;;;19.00;99.90;;;;;;5093436;28;20031;-64